Green Bay, WI

12:50 AM CDT on April 30, 2017 (GMT -0500)
Yahara Circle, East De Pere | | Change Station

Elev 587 ft 44.44 °N, 88.02 °W | Updated 12 seconds ago

Overcast
Overcast
43.5 °F
Feels Like 38 °F
N
10.7
Wind Variable Wind from ENE
Gusts 12.3 mph

Today
High -- | Low -- °F
--% Chance of Precip.
Yesterday
High -- | Low -- °F
Precip. -- in
Pressure 30.18 in
Visibility 10.0 miles
Clouds Overcast 8000 ft
Windchill 38 °F
Dew Point 28 °F
Humidity 54%
Rainfall 0.00 in
Snow Depth Not available.
5:43 AM 7:55 PM
Waxing Crescent, 19% visible
METAR KGRB 300453Z AUTO 03024G31KT 10SM OVC080 06/01 A3017 RMK AO2 PK WND 04031/0453 SLP220 T00610011
Pressure 30.18 in
Visibility 10.0 miles
Clouds Overcast 8000 ft
Windchill 38 °F
Dew Point 28 °F
Humidity 54%
Rainfall 0.00 in
Snow Depth Not available.
5:43 AM 7:55 PM
Waxing Crescent, 19% visible
METAR KGRB 300453Z AUTO 03024G31KT 10SM OVC080 06/01 A3017 RMK AO2 PK WND 04031/0453 SLP220 T00610011

Get Severe Weather Alerts

Thanks for signing up!

Be on the lookout for a verification email in your inbox.

You'll start receiving the daily forecast at 8 AM.

×

10-Day Weather Forecast

Almanac

Astronomy

Apr. 30, 2017 Rise Set
Actual Time
Civil Twilight
Nautical Twilight
Astronomical Twilight
Moon
Length of Visible Light
Length of Day
Tomorrow will be .
, % of the Moon is Illuminated

Today's Extremes

State Highs State Lows

Community

WunderPhotos

WunderBlog® & News

Nearby

Air Quality

  Air Quality AQ Index Pollutant
Not available.

Snow Depth

Station Depth Elevation

Earthquake Activity

City Distance Mag. Time & Date
Minimum magnitude displayed is 2.5.

Coastal Water Temperatures

Place Temperature

Stations

Nearby Weather Stations

Station Location Temp. Windchill Dew Point Humidity Wind Precip. Elev Updated Type
                   

Watches & Warnings

There are currently no watches in effect.